Rocky Ridge, Missouri
Current Conditions -  °F | °C
As of 11:15 AM on Thursday 18 Dec 2014 (Local Time) from KSAR Reporting Station
Light Snow Light Snow  
Wind Chill: 31°   Ceiling: 700
Heat Index: 31°   Visibility: 4mi
Dew Point: 29°   Wind: 3mph
Humidity: 92%   Direction: 50°NE
Pressure: 30.29"   Gusts: NA
Location:  37.9762°N, 90.0499°W
Report Text: KSAR 181715Z AUTO 05003KT 4SM -SN OVC007 00/M01 A3029 RMK AO2 T10031015
Loading
Personal Weather Stations






























Interactive Weather Map New forecast layout! Learn more

10-Day Weather Forecast

Advertisements
Track Severe Weather on mobile